createdAt,value
2019-03-15T00:02:19.428Z,14.95
2019-03-15T00:04:46.486Z,4.55
2019-03-15T00:07:15.951Z,5.20
2019-03-15T00:09:42.968Z,12.47
2019-03-15T00:12:09.986Z,8.48
2019-03-15T00:14:37.531Z,5.72
2019-03-15T00:17:04.575Z,4.53
2019-03-15T00:19:33.103Z,5.72
2019-03-15T00:21:59.759Z,8.13
2019-03-15T00:24:26.388Z,6.45
2019-03-15T00:26:53.435Z,3.33
2019-03-15T00:29:20.427Z,5.15
2019-03-15T00:31:47.793Z,7.92
2019-03-15T00:34:14.700Z,3.85
2019-03-15T00:36:42.279Z,4.92
2019-03-15T00:39:09.014Z,9.08
2019-03-15T00:41:36.280Z,7.08
2019-03-15T00:44:03.004Z,4.60
2019-03-15T00:46:29.648Z,4.92
2019-03-15T00:48:57.010Z,6.90
2019-03-15T00:51:25.282Z,7.62
2019-03-15T00:53:54.487Z,4.95
2019-03-15T00:56:22.807Z,2.95
2019-03-15T00:58:50.124Z,4.65
2019-03-15T01:01:18.124Z,5.30
2019-03-15T01:03:45.338Z,3.37
2019-03-15T01:06:12.422Z,14.38
2019-03-15T01:08:39.630Z,2.72
2019-03-15T01:11:07.126Z,5.80
2019-03-15T01:13:34.547Z,6.95
2019-03-15T01:16:01.605Z,5.83
2019-03-15T01:18:28.249Z,7.50
2019-03-15T01:20:55.898Z,5.00
2019-03-15T01:23:23.555Z,8.35
2019-03-15T01:25:51.522Z,3.67
2019-03-15T01:28:19.597Z,8.98
2019-03-15T01:30:46.595Z,17.48
2019-03-15T01:33:13.891Z,7.28
2019-03-15T01:35:40.836Z,10.58
2019-03-15T01:38:07.888Z,7.28
2019-03-15T01:40:35.298Z,9.03
2019-03-15T01:43:02.962Z,9.35
2019-03-15T01:45:29.951Z,10.58
2019-03-15T01:47:58.430Z,9.45
2019-03-15T01:50:25.074Z,5.55
2019-03-15T01:52:52.836Z,5.78
2019-03-15T01:55:20.595Z,6.42
2019-03-15T01:57:47.539Z,4.72
2019-03-15T02:00:14.166Z,9.85
2019-03-15T02:02:41.127Z,3.12
2019-03-15T02:05:08.787Z,8.38
2019-03-15T02:07:36.143Z,11.33
2019-03-15T02:10:03.596Z,5.20
2019-03-15T02:12:31.157Z,16.23
2019-03-15T02:14:57.785Z,7.85
2019-03-15T02:17:24.459Z,6.30
2019-03-15T02:19:53.219Z,10.32
2019-03-15T02:22:24.467Z,2.83
2019-03-15T02:24:55.582Z,3.33
2019-03-15T02:27:24.091Z,5.90
2019-03-15T02:29:50.855Z,5.60
2019-03-15T02:32:18.183Z,5.47
2019-03-15T02:34:45.206Z,9.83
2019-03-15T02:37:12.817Z,5.87
2019-03-15T02:39:40.253Z,6.62
2019-03-15T02:42:06.888Z,4.87
2019-03-15T02:44:35.268Z,11.90
2019-03-15T02:47:02.256Z,5.03
2019-03-15T02:49:29.299Z,8.23
2019-03-15T02:51:57.431Z,6.30
2019-03-15T02:54:24.375Z,7.20
2019-03-15T02:56:52.751Z,10.15
2019-03-15T02:59:21.014Z,7.97
2019-03-15T03:01:49.307Z,6.85
2019-03-15T03:04:16.864Z,2.67
2019-03-15T03:06:44.831Z,5.87
2019-03-15T03:09:11.779Z,4.85
2019-03-15T03:11:38.975Z,8.40
2019-03-15T03:14:06.215Z,6.30
2019-03-15T03:16:33.740Z,7.05
2019-03-15T03:19:01.360Z,5.47
2019-03-15T03:21:28.817Z,9.08
2019-03-15T03:23:57.336Z,12.90
2019-03-15T03:26:24.724Z,8.95
2019-03-15T03:28:52.056Z,13.08
2019-03-15T03:31:20.434Z,4.75
2019-03-15T03:33:47.480Z,9.60
2019-03-15T03:36:14.521Z,4.20
2019-03-15T03:38:41.163Z,7.45
2019-03-15T03:41:08.229Z,10.15
2019-03-15T03:43:35.645Z,6.30
2019-03-15T03:46:04.470Z,3.17
2019-03-15T03:48:31.712Z,3.33
2019-03-15T03:51:00.242Z,6.97
2019-03-15T03:53:27.772Z,4.53
2019-03-15T03:55:54.891Z,4.42
2019-03-15T03:58:22.450Z,6.10
2019-03-15T04:00:49.434Z,2.67
2019-03-15T04:03:17.863Z,1.95
2019-03-15T04:05:45.850Z,4.63
2019-03-15T04:08:14.530Z,5.10
2019-03-15T04:10:41.173Z,11.23
2019-03-15T04:13:08.784Z,4.10
2019-03-15T04:15:40.486Z,9.13
2019-03-15T04:18:07.216Z,5.23
2019-03-15T04:20:33.863Z,10.83
2019-03-15T04:23:02.449Z,4.20
2019-03-15T04:25:29.510Z,18.80
2019-03-15T04:27:58.139Z,8.18
2019-03-15T04:30:31.070Z,13.20
2019-03-15T04:33:05.207Z,8.93
2019-03-15T04:35:32.420Z,9.30
2019-03-15T04:37:59.403Z,5.03
2019-03-15T04:40:26.320Z,8.88
2019-03-15T04:42:53.083Z,7.62
2019-03-15T04:45:21.035Z,11.20
2019-03-15T04:47:47.693Z,4.40
2019-03-15T04:50:14.414Z,15.40
2019-03-15T04:52:41.384Z,7.00
2019-03-15T04:55:08.007Z,6.70
2019-03-15T04:57:35.083Z,18.12
2019-03-15T05:00:01.783Z,17.35
2019-03-15T05:02:28.567Z,11.85
2019-03-15T05:04:55.343Z,10.68
2019-03-15T05:07:24.471Z,10.08
2019-03-15T05:09:51.614Z,10.68
2019-03-15T05:12:18.306Z,8.45
2019-03-15T05:14:45.610Z,13.22
2019-03-15T05:17:12.966Z,8.45
2019-03-15T05:19:39.990Z,6.12
2019-03-15T05:22:06.703Z,5.53
2019-03-15T05:24:34.571Z,14.00
2019-03-15T05:27:02.755Z,12.65
2019-03-15T05:29:29.891Z,9.50
2019-03-15T05:31:56.894Z,5.85
2019-03-15T05:34:24.344Z,15.80
2019-03-15T05:36:51.800Z,16.23
2019-03-15T05:39:18.910Z,24.07
2019-03-15T05:41:46.299Z,21.68
2019-03-15T05:44:13.315Z,18.48
2019-03-15T05:46:40.808Z,19.50
2019-03-15T05:49:07.878Z,13.00
2019-03-15T05:51:34.562Z,15.60
2019-03-15T05:54:01.271Z,13.90
2019-03-15T05:56:29.095Z,24.30
2019-03-15T05:58:55.839Z,13.30
2019-03-15T06:01:24.199Z,19.97
2019-03-15T06:03:51.252Z,20.60
2019-03-15T06:06:18.193Z,13.93
2019-03-15T06:08:46.159Z,20.27
2019-03-15T06:11:14.131Z,21.50
2019-03-15T06:13:41.692Z,15.27
2019-03-15T06:16:08.303Z,25.43
2019-03-15T06:18:35.683Z,16.30
2019-03-15T06:21:02.406Z,27.40
2019-03-15T06:23:29.984Z,21.40
2019-03-15T06:25:56.601Z,23.63
2019-03-15T06:28:23.872Z,33.97
2019-03-15T06:30:50.811Z,37.03
2019-03-15T06:33:17.706Z,26.43
2019-03-15T06:35:47.775Z,22.13
2019-03-15T06:38:14.819Z,20.90
2019-03-15T06:40:42.211Z,35.37
2019-03-15T06:43:08.814Z,43.20
2019-03-15T06:45:35.539Z,49.57
2019-03-15T06:48:03.563Z,22.67
2019-03-15T06:50:30.216Z,28.97
2019-03-15T06:52:57.912Z,18.33
2019-03-15T06:55:25.486Z,25.13
2019-03-15T06:57:52.358Z,28.27
2019-03-15T07:00:19.080Z,25.40
2019-03-15T07:02:51.086Z,22.63
2019-03-15T07:05:17.707Z,38.20
2019-03-15T07:07:45.155Z,40.00
2019-03-15T07:10:12.391Z,28.63
2019-03-15T07:12:41.148Z,26.07
2019-03-15T07:15:07.890Z,26.93
2019-03-15T07:17:34.539Z,20.17
2019-03-15T07:20:01.170Z,32.97
2019-03-15T07:22:27.874Z,27.13
2019-03-15T07:24:54.525Z,23.63
2019-03-15T07:27:21.946Z,26.07
2019-03-15T07:29:48.747Z,35.17
2019-03-15T07:32:15.459Z,32.73
2019-03-15T07:34:42.067Z,26.37
2019-03-15T07:37:08.675Z,34.30
2019-03-15T07:39:35.455Z,32.20
2019-03-15T07:42:03.399Z,28.80
2019-03-15T07:44:30.027Z,23.80
2019-03-15T07:46:58.725Z,45.10
2019-03-15T07:49:25.343Z,28.90
2019-03-15T07:51:52.074Z,27.33
2019-03-15T07:54:21.270Z,30.20
2019-03-15T07:56:49.239Z,23.30
2019-03-15T07:59:16.601Z,30.77
2019-03-15T08:01:44.815Z,44.80
2019-03-15T08:04:17.186Z,28.20
2019-03-15T08:06:42.035Z,29.43
2019-03-15T08:09:09.503Z,28.60
2019-03-15T08:11:36.120Z,30.63
2019-03-15T08:14:03.773Z,21.37
2019-03-15T08:16:30.441Z,18.07
2019-03-15T08:18:57.038Z,34.73
2019-03-15T08:21:23.663Z,23.17
2019-03-15T08:23:50.302Z,26.40
2019-03-15T08:26:17.003Z,33.33
2019-03-15T08:28:44.822Z,26.97
2019-03-15T08:31:11.446Z,27.33
2019-03-15T08:33:39.159Z,27.60
2019-03-15T08:36:05.775Z,35.87
2019-03-15T08:38:42.428Z,29.77
2019-03-15T08:41:00.927Z,24.43
2019-03-15T08:43:27.701Z,24.90
2019-03-15T08:45:55.110Z,25.30
2019-03-15T08:48:22.146Z,27.23
2019-03-15T08:50:48.775Z,27.30
2019-03-15T08:53:15.542Z,20.17
2019-03-15T08:55:42.493Z,29.17
2019-03-15T08:58:13.840Z,26.60
2019-03-15T09:00:38.155Z,14.67
2019-03-15T09:03:05.171Z,26.23
2019-03-15T09:05:32.407Z,13.97
2019-03-15T09:07:59.377Z,28.90
2019-03-15T09:10:26.705Z,23.93
2019-03-15T09:12:53.319Z,19.73
2019-03-15T09:15:20.968Z,29.63
2019-03-15T09:17:48.973Z,27.63
2019-03-15T09:20:15.958Z,25.10
2019-03-15T09:22:43.991Z,26.80
2019-03-15T09:25:19.093Z,23.63
2019-03-15T09:27:45.407Z,21.23
2019-03-15T09:30:23.320Z,21.93
2019-03-15T09:32:46.823Z,27.60
2019-03-15T09:35:13.431Z,27.93
2019-03-15T09:37:40.399Z,24.67
2019-03-15T09:40:08.253Z,20.17
2019-03-15T09:42:35.461Z,18.40
2019-03-15T09:45:02.459Z,29.23
2019-03-15T09:47:29.516Z,19.23
2019-03-15T09:49:56.123Z,23.57
2019-03-15T09:52:22.875Z,19.70
2019-03-15T09:54:49.495Z,26.30
2019-03-15T09:57:17.217Z,22.50
2019-03-15T09:59:50.607Z,19.17
2019-03-15T10:02:29.620Z,27.13
2019-03-15T10:04:47.043Z,23.10
2019-03-15T10:07:14.110Z,17.47
2019-03-15T10:09:46.069Z,21.03
2019-03-15T10:12:09.952Z,23.70
2019-03-15T10:14:36.615Z,27.93
2019-03-15T10:17:03.226Z,26.40
2019-03-15T10:19:30.033Z,30.30
2019-03-15T10:21:57.104Z,28.03
2019-03-15T10:24:24.327Z,26.47
2019-03-15T10:26:51.382Z,17.20
2019-03-15T10:29:19.633Z,28.23
2019-03-15T10:31:48.431Z,21.70
2019-03-15T10:34:17.155Z,18.50
2019-03-15T10:36:43.921Z,23.70
2019-03-15T10:39:10.531Z,27.50
2019-03-15T10:41:38.394Z,25.53
2019-03-15T10:44:05.480Z,25.70
2019-03-15T10:46:32.099Z,20.03
2019-03-15T10:48:58.727Z,18.20
2019-03-15T10:51:25.798Z,25.87
2019-03-15T10:53:55.054Z,17.00
2019-03-15T10:56:21.244Z,21.13
2019-03-15T10:58:47.995Z,16.43
2019-03-15T11:01:14.619Z,21.13
2019-03-15T11:03:41.612Z,18.00
2019-03-15T11:06:09.420Z,22.17
2019-03-15T11:08:36.407Z,26.50
2019-03-15T11:11:03.051Z,21.80
2019-03-15T11:13:29.993Z,22.60
2019-03-15T11:15:56.716Z,19.57
2019-03-15T11:18:24.595Z,35.70
2019-03-15T11:20:51.575Z,20.60
2019-03-15T11:23:18.190Z,20.00
2019-03-15T11:25:46.351Z,17.63
2019-03-15T11:28:12.986Z,11.80
2019-03-15T11:30:40.245Z,24.10
2019-03-15T11:33:06.932Z,18.10
2019-03-15T11:35:33.567Z,15.27
2019-03-15T11:38:00.615Z,15.43
2019-03-15T11:40:27.245Z,14.53
2019-03-15T11:42:54.143Z,22.80
2019-03-15T11:45:21.399Z,18.30
2019-03-15T11:48:02.690Z,15.63
2019-03-15T11:50:20.107Z,13.73
2019-03-15T11:52:48.273Z,16.23
2019-03-15T11:55:14.904Z,12.13
2019-03-15T11:57:41.858Z,10.73
2019-03-15T12:00:11.280Z,13.10
2019-03-15T12:02:39.362Z,16.63
2019-03-15T12:05:06.378Z,16.50
2019-03-15T12:07:33.485Z,17.93
2019-03-15T12:10:00.381Z,15.33
2019-03-15T12:12:28.954Z,14.97
2019-03-15T12:14:56.642Z,17.13
2019-03-15T12:17:23.255Z,12.30
2019-03-15T12:19:50.403Z,13.73
2019-03-15T12:22:18.052Z,16.40
2019-03-15T12:24:44.675Z,15.03
2019-03-15T12:27:12.319Z,18.47
2019-03-15T12:29:39.200Z,16.30
2019-03-15T12:32:05.821Z,15.80
2019-03-15T12:34:32.806Z,9.80
2019-03-15T12:36:59.731Z,17.93
2019-03-15T12:39:26.679Z,11.83
2019-03-15T12:41:54.115Z,19.73
2019-03-15T12:44:20.729Z,12.73
2019-03-15T12:46:47.348Z,15.83
2019-03-15T12:49:14.588Z,9.60
2019-03-15T12:51:42.665Z,10.20
2019-03-15T12:54:09.982Z,12.43
2019-03-15T12:56:37.950Z,6.73
2019-03-15T12:59:05.203Z,11.50
2019-03-15T13:01:32.458Z,11.17
2019-03-15T13:03:59.550Z,8.63
2019-03-15T13:06:26.459Z,7.73
2019-03-15T13:08:53.075Z,5.40
2019-03-15T13:11:19.722Z,3.73
2019-03-15T13:13:46.695Z,5.47
2019-03-15T13:16:14.339Z,10.23
2019-03-15T13:18:41.127Z,6.43
2019-03-15T13:21:08.120Z,12.13
2019-03-15T13:23:34.848Z,12.93
2019-03-15T13:26:01.855Z,12.93
2019-03-15T13:28:29.559Z,12.00
2019-03-15T13:30:56.268Z,16.23
2019-03-15T13:33:23.016Z,12.93
2019-03-15T13:35:49.695Z,14.40
2019-03-15T13:38:16.322Z,13.83
2019-03-15T13:40:42.965Z,15.83
2019-03-15T13:43:09.586Z,12.27
2019-03-15T13:45:37.435Z,15.43
2019-03-15T13:48:04.707Z,12.23
2019-03-15T13:50:31.319Z,13.60
2019-03-15T13:52:57.927Z,16.13
2019-03-15T13:55:25.018Z,22.97
2019-03-15T13:57:52.597Z,20.70
2019-03-15T14:00:20.568Z,13.13
2019-03-15T14:02:48.356Z,15.93
2019-03-15T14:05:15.483Z,22.10
2019-03-15T14:07:42.119Z,26.80
2019-03-15T14:10:10.085Z,27.67
2019-03-15T14:12:37.026Z,15.03
2019-03-15T14:15:05.210Z,28.27
2019-03-15T14:17:32.253Z,20.87
2019-03-15T14:19:59.602Z,14.60
2019-03-15T14:22:26.558Z,13.60
2019-03-15T14:24:53.199Z,18.03
2019-03-15T14:27:27.613Z,17.07
2019-03-15T14:29:49.023Z,17.30
2019-03-15T14:32:16.940Z,20.53
2019-03-15T14:34:44.247Z,20.13
2019-03-15T14:37:10.902Z,18.37
2019-03-15T14:39:37.810Z,10.07
2019-03-15T14:42:04.524Z,23.67
2019-03-15T14:44:31.589Z,22.73
2019-03-15T14:46:58.563Z,23.80
2019-03-15T14:49:26.121Z,20.50
2019-03-15T14:51:52.747Z,18.63
2019-03-15T14:54:20.979Z,21.23
2019-03-15T14:56:47.593Z,25.63
2019-03-15T14:59:14.207Z,9.10
2019-03-15T15:01:40.848Z,14.57
2019-03-15T15:04:07.783Z,23.80
2019-03-15T15:06:34.408Z,22.90
2019-03-15T15:09:01.431Z,17.10
2019-03-15T15:11:29.948Z,9.97
2019-03-15T15:13:56.923Z,17.03
2019-03-15T15:16:23.565Z,13.57
2019-03-15T15:18:50.177Z,16.93
2019-03-15T15:21:18.551Z,21.43
2019-03-15T15:23:45.904Z,19.37
2019-03-15T15:26:13.364Z,15.37
2019-03-15T15:28:40.819Z,28.50
2019-03-15T15:31:08.893Z,14.33
2019-03-15T15:33:36.657Z,21.33
2019-03-15T15:36:03.272Z,22.27
2019-03-15T15:38:30.382Z,20.33
2019-03-15T15:40:57.591Z,23.90
2019-03-15T15:43:24.205Z,26.30
2019-03-15T15:45:51.583Z,25.27
2019-03-15T15:48:18.831Z,18.07
2019-03-15T15:50:45.436Z,22.63
2019-03-15T15:53:12.112Z,18.60
2019-03-15T15:55:38.719Z,15.57
2019-03-15T15:58:17.318Z,23.20
2019-03-15T16:00:33.919Z,14.83
2019-03-15T16:03:00.519Z,26.20
2019-03-15T16:05:27.119Z,19.70
2019-03-15T16:07:56.654Z,24.43
2019-03-15T16:10:23.107Z,27.13
2019-03-15T16:12:49.826Z,19.70
2019-03-15T16:15:16.706Z,18.57
2019-03-15T16:17:45.379Z,40.23
2019-03-15T16:20:12.183Z,19.47
2019-03-15T16:22:39.271Z,19.97
2019-03-15T16:25:05.964Z,29.10
2019-03-15T16:27:32.683Z,18.47
2019-03-15T16:30:00.719Z,21.77
2019-03-15T16:32:27.435Z,25.17
2019-03-15T16:34:55.999Z,23.37
2019-03-15T16:37:22.655Z,18.83
2019-03-15T16:39:49.254Z,19.17
2019-03-15T16:42:16.231Z,22.03
2019-03-15T16:44:44.095Z,22.73
2019-03-15T16:47:11.042Z,21.30
2019-03-15T16:49:37.659Z,23.43
2019-03-15T16:52:04.298Z,16.90
2019-03-15T16:54:30.914Z,26.10
2019-03-15T16:56:57.899Z,15.20
2019-03-15T16:59:24.895Z,11.97
2019-03-15T17:01:54.354Z,38.20
2019-03-15T17:04:20.811Z,19.27
2019-03-15T17:06:47.559Z,18.93
2019-03-15T17:09:14.770Z,34.37
2019-03-15T17:11:41.720Z,17.73
2019-03-15T17:14:09.066Z,29.00
2019-03-15T17:16:35.952Z,24.23
2019-03-15T17:19:02.867Z,25.90
2019-03-15T17:21:30.019Z,32.30
2019-03-15T17:23:58.591Z,25.20
2019-03-15T17:26:25.564Z,21.07
2019-03-15T17:28:58.577Z,21.40
2019-03-15T17:31:20.852Z,30.20
2019-03-15T17:33:47.802Z,21.83
2019-03-15T17:36:15.159Z,23.30
2019-03-15T17:38:42.111Z,19.70
2019-03-15T17:41:09.842Z,24.90
2019-03-15T17:43:37.323Z,21.33
2019-03-15T17:46:04.055Z,21.90
2019-03-15T17:48:31.010Z,16.73
2019-03-15T17:50:57.763Z,27.07
2019-03-15T17:53:25.308Z,22.53
2019-03-15T17:55:52.563Z,19.05
2019-03-15T17:58:19.875Z,12.20
2019-03-15T18:00:47.173Z,23.83
2019-03-15T18:03:21.259Z,33.47
2019-03-15T18:05:43.204Z,16.30
2019-03-15T18:08:10.362Z,15.28
2019-03-15T18:10:38.115Z,31.60
2019-03-15T18:13:05.131Z,21.15
2019-03-15T18:15:32.138Z,27.80
2019-03-15T18:18:00.938Z,18.73
2019-03-15T18:20:28.652Z,16.65
2019-03-15T18:22:55.392Z,19.40
2019-03-15T18:25:22.045Z,26.42
2019-03-15T18:27:49.702Z,22.32
2019-03-15T18:30:16.528Z,29.00
2019-03-15T18:32:43.527Z,11.75
2019-03-15T18:35:10.244Z,11.05
2019-03-15T18:37:36.902Z,18.60
2019-03-15T18:40:05.789Z,10.78
2019-03-15T18:42:33.310Z,13.08
2019-03-15T18:44:59.914Z,14.33
2019-03-15T18:47:26.903Z,19.75
2019-03-15T18:49:54.255Z,23.47
2019-03-15T18:52:21.611Z,23.10
2019-03-15T18:54:48.810Z,14.43
2019-03-15T18:57:16.060Z,16.90
2019-03-15T18:59:42.731Z,11.88
2019-03-15T19:02:09.774Z,9.73
2019-03-15T19:04:36.439Z,8.28
2019-03-15T19:07:03.094Z,12.30
2019-03-15T19:09:30.179Z,9.63
2019-03-15T19:11:57.171Z,14.85
2019-03-15T19:14:24.527Z,15.83
2019-03-15T19:16:51.285Z,11.95
2019-03-15T19:19:18.633Z,4.92
2019-03-15T19:21:45.667Z,13.38
2019-03-15T19:24:12.334Z,11.88
2019-03-15T19:26:40.068Z,4.62
2019-03-15T19:29:07.014Z,13.93
2019-03-15T19:31:34.303Z,11.70
2019-03-15T19:34:01.316Z,9.78
2019-03-15T19:36:28.757Z,4.53
2019-03-15T19:38:56.349Z,10.03
2019-03-15T19:41:25.150Z,8.65
2019-03-15T19:43:52.260Z,6.47
2019-03-15T19:46:19.323Z,11.40
2019-03-15T19:48:48.651Z,10.55
2019-03-15T19:51:18.430Z,11.30
2019-03-15T19:53:46.712Z,16.48
2019-03-15T19:56:13.611Z,6.47
2019-03-15T19:58:42.060Z,12.78
2019-03-15T20:01:09.176Z,15.68
2019-03-15T20:03:44.099Z,11.93
2019-03-15T20:06:08.423Z,11.10
2019-03-15T20:08:37.398Z,16.10
2019-03-15T20:11:04.491Z,12.00
2019-03-15T20:13:31.834Z,11.33
2019-03-15T20:15:59.572Z,10.68
2019-03-15T20:18:28.236Z,18.95
2019-03-15T20:20:55.434Z,13.48
2019-03-15T20:23:23.499Z,20.90
2019-03-15T20:25:51.068Z,19.85
2019-03-15T20:28:19.438Z,14.33
2019-03-15T20:30:52.294Z,18.00
2019-03-15T20:33:17.128Z,10.48
2019-03-15T20:35:43.977Z,18.82
2019-03-15T20:38:11.546Z,20.82
2019-03-15T20:40:40.498Z,17.82
2019-03-15T20:43:07.910Z,7.95
2019-03-15T20:45:36.139Z,9.75
2019-03-15T20:48:03.493Z,12.60
2019-03-15T20:50:30.745Z,7.50
2019-03-15T20:53:07.836Z,8.38
2019-03-15T20:55:29.047Z,8.63
2019-03-15T20:57:58.739Z,14.73
2019-03-15T21:00:35.577Z,19.27
2019-03-15T21:02:56.405Z,13.58
2019-03-15T21:05:36.063Z,8.20
2019-03-15T21:08:02.754Z,12.70
2019-03-15T21:10:29.951Z,7.30
2019-03-15T21:12:57.205Z,18.10
2019-03-15T21:15:24.876Z,13.10
2019-03-15T21:17:51.637Z,18.80
2019-03-15T21:20:18.481Z,18.02
2019-03-15T21:22:45.328Z,18.00
2019-03-15T21:25:12.615Z,11.78
2019-03-15T21:27:52.562Z,15.98
2019-03-15T21:30:09.993Z,14.43
2019-03-15T21:32:39.383Z,27.30
2019-03-15T21:35:06.531Z,8.83
2019-03-15T21:37:35.017Z,10.28
2019-03-15T21:40:03.089Z,9.75
2019-03-15T21:42:29.819Z,7.05
2019-03-15T21:44:56.455Z,11.22
2019-03-15T21:47:23.683Z,18.17
2019-03-15T21:49:50.655Z,17.15
2019-03-15T21:52:17.286Z,26.23
2019-03-15T21:54:44.363Z,8.28
2019-03-15T21:57:11.711Z,11.88
2019-03-15T21:59:39.191Z,21.85
2019-03-15T22:02:05.971Z,20.95
2019-03-15T22:04:33.052Z,23.83
2019-03-15T22:07:00.499Z,31.30
2019-03-15T22:09:27.624Z,23.70
2019-03-15T22:11:55.212Z,31.45
2019-03-15T22:14:21.863Z,19.02
2019-03-15T22:16:48.595Z,34.35
2019-03-15T22:19:15.940Z,25.70
2019-03-15T22:21:43.195Z,23.42
2019-03-15T22:24:09.832Z,27.90
2019-03-15T22:26:37.391Z,28.10
2019-03-15T22:29:04.019Z,28.50
2019-03-15T22:31:31.282Z,31.10
2019-03-15T22:33:58.228Z,56.35
2019-03-15T22:36:25.523Z,42.38
2019-03-15T22:38:52.429Z,31.90
2019-03-15T22:41:19.675Z,38.00
2019-03-15T22:43:47.545Z,35.17
2019-03-15T22:46:14.159Z,26.50
2019-03-15T22:48:40.823Z,18.57
2019-03-15T22:51:07.591Z,16.42
2019-03-15T22:53:34.235Z,35.98
2019-03-15T22:56:01.860Z,24.10
2019-03-15T22:58:29.088Z,27.73
2019-03-15T23:00:55.725Z,35.68
2019-03-15T23:03:23.136Z,21.87
2019-03-15T23:05:50.167Z,35.80
2019-03-15T23:08:17.399Z,17.00
2019-03-15T23:10:46.985Z,24.25
2019-03-15T23:13:12.690Z,39.10
2019-03-15T23:15:39.308Z,18.07
2019-03-15T23:18:05.936Z,29.67
2019-03-15T23:20:33.711Z,25.55
2019-03-15T23:23:01.538Z,33.88
2019-03-15T23:25:28.647Z,25.60
2019-03-15T23:27:55.644Z,23.45
2019-03-15T23:30:22.570Z,31.82
2019-03-15T23:32:49.892Z,25.62
2019-03-15T23:35:18.631Z,36.35
2019-03-15T23:37:45.550Z,26.95
2019-03-15T23:40:13.518Z,39.05
2019-03-15T23:42:40.195Z,27.80
2019-03-15T23:45:07.032Z,23.07
2019-03-15T23:47:33.970Z,34.60
2019-03-15T23:50:01.407Z,21.77
2019-03-15T23:52:28.340Z,23.40
2019-03-15T23:54:55.281Z,21.65
2019-03-15T23:57:22.751Z,25.02
2019-03-15T23:59:49.707Z,28.55
